Time;durP1;ratioP1;P1;durP2;ratioP2;P2;SDS_P1;SDS_P2;PMS_P1;PMS_P2;Temp;Humidity;BMP_temperature;BMP_pressure;BME280_temperature;BME280_humidity;BME280_pressure;Samples;Min_cycle;Max_cycle;Signal;HPM_P1;HPM_P2
2023/05/15 00:01:58;;;;;;;11.73;6.30;;;10.90;99.90;;;;;;5062127;28;20048;-73
2023/05/15 00:04:23;;;;;;;11.45;5.65;;;10.90;99.90;;;;;;5067352;28;20166;-73
2023/05/15 00:06:49;;;;;;;8.38;4.93;;;10.90;99.90;;;;;;5061782;28;20024;-73
2023/05/15 00:09:16;;;;;;;13.65;5.85;;;10.70;99.90;;;;;;5059701;28;20542;-73
2023/05/15 00:11:41;;;;;;;12.73;5.57;;;10.60;99.90;;;;;;5060289;28;20588;-73
2023/05/15 00:14:07;;;;;;;11.23;6.10;;;10.50;99.90;;;;;;5057855;28;20032;-73
2023/05/15 00:16:32;;;;;;;11.55;5.72;;;10.40;99.90;;;;;;5056669;28;20029;-73
2023/05/15 00:18:58;;;;;;;12.18;5.97;;;10.40;99.90;;;;;;5059877;28;20440;-73
2023/05/15 00:21:23;;;;;;;12.10;5.97;;;10.40;99.90;;;;;;5068516;28;20024;-73
2023/05/15 00:23:52;;;;;;;12.52;6.07;;;10.50;99.90;;;;;;5051890;28;20036;-73
2023/05/15 00:26:18;;;;;;;16.25;6.60;;;10.50;99.90;;;;;;5064287;28;20025;-73
2023/05/15 00:28:44;;;;;;;11.15;5.47;;;10.60;99.90;;;;;;5062218;28;20035;-73
2023/05/15 00:31:11;;;;;;;11.20;5.65;;;10.50;99.90;;;;;;5062837;28;20730;-73
2023/05/15 00:33:37;;;;;;;14.15;6.07;;;10.40;99.90;;;;;;5057208;28;20055;-73
2023/05/15 00:36:03;;;;;;;10.90;5.82;;;10.40;99.90;;;;;;5059257;28;20032;-74
2023/05/15 00:38:32;;;;;;;10.48;5.82;;;10.40;99.90;;;;;;5050753;28;20029;-73
2023/05/15 00:40:58;;;;;;;11.32;6.07;;;10.40;99.90;;;;;;5060319;28;20532;-73
2023/05/15 00:43:25;;;;;;;11.27;6.15;;;10.40;99.90;;;;;;5065037;28;20145;-73
2023/05/15 00:45:52;;;;;;;12.75;6.05;;;10.30;99.90;;;;;;5056490;28;20051;-73
2023/05/15 00:48:21;;;;;;;17.73;6.53;;;10.30;99.90;;;;;;5057686;28;20036;-73
2023/05/15 00:50:50;;;;;;;11.18;5.50;;;10.30;99.90;;;;;;5048363;28;20087;-73
2023/05/15 00:53:17;;;;;;;13.25;6.22;;;10.30;99.90;;;;;;5062729;28;20051;-73
2023/05/15 00:55:45;;;;;;;11.30;6.05;;;10.30;99.90;;;;;;5061856;28;20025;-73
2023/05/15 00:58:13;;;;;;;13.50;6.50;;;10.30;99.90;;;;;;5062785;28;20060;-73
2023/05/15 01:00:39;;;;;;;10.93;6.07;;;10.30;99.90;;;;;;5057775;28;20037;-73
2023/05/15 01:03:05;;;;;;;12.02;6.28;;;10.20;99.90;;;;;;5054693;28;20115;-73
2023/05/15 01:05:31;;;;;;;12.73;6.05;;;10.20;99.90;;;;;;5050906;28;20446;-73
2023/05/15 01:08:06;;;;;;;10.63;6.18;;;10.30;99.90;;;;;;5066428;28;20036;-73
2023/05/15 01:10:34;;;;;;;13.90;6.88;;;10.20;99.90;;;;;;5057476;28;20460;-73
2023/05/15 01:13:01;;;;;;;12.57;6.70;;;10.30;99.90;;;;;;5055398;28;20083;-73
2023/05/15 01:15:26;;;;;;;13.50;5.60;;;10.40;99.90;;;;;;5054751;28;20086;-73
2023/05/15 01:17:52;;;;;;;11.68;6.30;;;10.40;99.90;;;;;;5058411;28;20037;-73
2023/05/15 01:20:19;;;;;;;11.27;5.47;;;10.30;99.90;;;;;;5063265;28;20025;-73
2023/05/15 01:22:54;;;;;;;13.13;6.20;;;10.30;99.90;;;;;;5063834;28;20038;-73
2023/05/15 01:25:36;;;;;;;14.32;6.50;;;10.30;99.90;;;;;;5068085;28;20033;-73
2023/05/15 01:28:10;;;;;;;14.35;6.88;;;10.30;99.90;;;;;;5056405;28;20071;-73
2023/05/15 01:30:41;;;;;;;12.43;6.47;;;10.40;99.90;;;;;;5056899;28;20465;-73
2023/05/15 01:33:29;;;;;;;13.27;5.65;;;10.40;99.90;;;;;;5052097;28;20043;-73
2023/05/15 01:36:09;;;;;;;10.50;5.80;;;10.40;99.90;;;;;;5058856;28;20478;-73
2023/05/15 01:38:47;;;;;;;11.70;6.00;;;10.40;99.90;;;;;;5067120;28;20133;-73
2023/05/15 01:41:41;;;;;;;12.85;6.28;;;10.30;99.90;;;;;;5057582;28;20052;-73
2023/05/15 01:44:09;;;;;;;17.35;7.25;;;10.10;99.90;;;;;;5058118;28;20082;-73
2023/05/15 01:46:38;;;;;;;14.13;7.60;;;10.10;99.90;;;;;;5059211;28;20477;-74
2023/05/15 01:49:09;;;;;;;21.42;9.77;;;10.10;99.90;;;;;;5059089;28;20634;-73
2023/05/15 01:51:37;;;;;;;20.30;8.80;;;10.10;99.90;;;;;;5065306;28;20032;-73
2023/05/15 01:54:05;;;;;;;20.48;10.00;;;10.10;99.90;;;;;;5058212;28;20040;-73
2023/05/15 01:56:32;;;;;;;19.83;10.02;;;10.20;99.90;;;;;;5052740;28;20033;-73
2023/05/15 01:58:59;;;;;;;21.23;11.15;;;10.30;99.90;;;;;;5062309;28;20029;-73
2023/05/15 02:01:26;;;;;;;23.67;11.02;;;10.30;99.90;;;;;;5055791;28;20040;-73
2023/05/15 02:03:54;;;;;;;19.13;10.82;;;10.40;99.90;;;;;;5063028;28;20036;-73
2023/05/15 02:06:20;;;;;;;22.00;11.00;;;10.40;99.90;;;;;;5058782;28;20688;-73
2023/05/15 02:08:47;;;;;;;17.65;9.73;;;10.40;99.90;;;;;;5062698;28;20039;-73
2023/05/15 02:11:13;;;;;;;22.02;10.30;;;10.40;99.90;;;;;;5061327;28;20040;-73
2023/05/15 02:13:41;;;;;;;20.52;10.43;;;10.40;99.90;;;;;;5057617;28;20045;-73
2023/05/15 02:16:06;;;;;;;21.83;10.05;;;10.40;99.90;;;;;;5060146;28;20064;-74
2023/05/15 02:18:32;;;;;;;18.58;9.88;;;10.40;99.90;;;;;;5063003;28;20105;-73
2023/05/15 02:20:59;;;;;;;17.50;9.07;;;10.40;99.90;;;;;;5055361;28;20025;-73
2023/05/15 02:23:25;;;;;;;19.90;9.43;;;10.40;99.90;;;;;;5070232;28;20044;-73
2023/05/15 02:26:15;;;;;;;19.33;9.48;;;10.40;99.90;;;;;;5064700;28;20626;-73
2023/05/15 02:28:53;;;;;;;20.03;10.10;;;10.40;99.90;;;;;;5058461;28;20033;-73
2023/05/15 02:31:39;;;;;;;24.15;11.15;;;10.30;99.90;;;;;;5065994;28;20565;-73
2023/05/15 02:34:35;;;;;;;25.90;11.60;;;10.30;99.90;;;;;;5062690;28;20501;-73
2023/05/15 02:37:03;;;;;;;23.10;11.52;;;10.30;99.90;;;;;;5059219;28;20109;-72
2023/05/15 02:39:29;;;;;;;23.77;12.45;;;10.30;99.90;;;;;;5053158;28;20021;-73
2023/05/15 02:41:56;;;;;;;32.25;12.93;;;10.30;99.90;;;;;;5056116;28;20082;-72
2023/05/15 02:44:23;;;;;;;25.27;12.18;;;10.30;99.90;;;;;;5069077;28;20434;-73
2023/05/15 02:46:51;;;;;;;25.17;12.75;;;10.30;99.90;;;;;;5065900;28;20063;-73
2023/05/15 02:49:17;;;;;;;28.35;13.13;;;10.30;99.90;;;;;;5060073;28;20025;-73
2023/05/15 02:51:43;;;;;;;27.52;13.15;;;10.20;99.90;;;;;;5057122;28;20025;-72
2023/05/15 02:54:09;;;;;;;26.30;12.30;;;10.20;99.90;;;;;;5070318;28;20081;-73
2023/05/15 02:56:34;;;;;;;27.73;13.50;;;10.20;99.90;;;;;;5059948;28;20028;-73
2023/05/15 02:59:00;;;;;;;24.27;12.27;;;10.20;99.90;;;;;;5066528;28;20032;-73
2023/05/15 03:01:26;;;;;;;31.52;13.48;;;10.10;99.90;;;;;;5061312;28;20048;-73
2023/05/15 03:03:51;;;;;;;24.20;13.07;;;10.10;99.90;;;;;;5061607;28;20484;-73
2023/05/15 03:06:17;;;;;;;26.00;13.52;;;10.10;99.90;;;;;;5061154;28;20143;-74
2023/05/15 03:08:43;;;;;;;26.67;13.45;;;10.10;99.90;;;;;;5059794;28;20047;-73
2023/05/15 03:11:09;;;;;;;29.27;13.57;;;10.00;99.90;;;;;;5064193;28;20080;-74
2023/05/15 03:13:35;;;;;;;27.48;12.68;;;10.00;99.90;;;;;;5059922;28;20509;-74
2023/05/15 03:16:00;;;;;;;25.95;12.48;;;9.90;99.90;;;;;;5062538;28;20033;-74
2023/05/15 03:18:26;;;;;;;27.35;12.35;;;9.90;99.90;;;;;;5063399;28;20025;-74
2023/05/15 03:20:52;;;;;;;25.63;12.63;;;9.80;99.90;;;;;;5059559;28;20091;-74
2023/05/15 03:23:17;;;;;;;25.83;13.07;;;9.80;99.90;;;;;;5055169;28;20175;-74
2023/05/15 03:25:43;;;;;;;27.52;13.20;;;9.80;99.90;;;;;;5052297;28;20033;-74
2023/05/15 03:28:09;;;;;;;26.27;13.18;;;9.80;99.90;;;;;;5068416;28;20731;-74
2023/05/15 03:30:35;;;;;;;26.02;12.93;;;9.70;99.90;;;;;;5068233;28;20033;-74
2023/05/15 03:33:02;;;;;;;26.13;12.63;;;9.70;99.90;;;;;;5058088;28;20102;-74
2023/05/15 03:35:29;;;;;;;25.75;13.27;;;9.70;99.90;;;;;;5060988;28;20314;-74
2023/05/15 03:37:55;;;;;;;25.77;13.45;;;9.70;99.90;;;;;;5066588;28;20106;-74
2023/05/15 03:40:20;;;;;;;27.25;12.77;;;9.70;99.90;;;;;;5067876;28;20085;-74
2023/05/15 03:42:46;;;;;;;26.58;12.98;;;9.60;99.90;;;;;;5059764;28;20032;-74
2023/05/15 03:45:12;;;;;;;23.13;12.68;;;9.60;99.90;;;;;;5069632;28;20468;-74
2023/05/15 03:47:37;;;;;;;23.83;12.25;;;9.60;99.90;;;;;;5059605;28;20032;-74
2023/05/15 03:50:03;;;;;;;27.75;13.32;;;9.60;99.90;;;;;;5060914;28;20037;-74
2023/05/15 03:52:29;;;;;;;31.02;14.60;;;9.70;99.90;;;;;;5061609;28;20037;-72
2023/05/15 03:54:55;;;;;;;28.88;14.20;;;9.70;99.90;;;;;;5057100;28;20380;-73
2023/05/15 03:57:21;;;;;;;29.88;14.20;;;9.80;99.90;;;;;;5043711;28;20024;-70
2023/05/15 03:59:46;;;;;;;26.45;13.23;;;9.80;99.90;;;;;;5051389;28;20033;-68
2023/05/15 04:02:12;;;;;;;28.92;13.85;;;9.80;99.90;;;;;;5052869;28;20076;-71
2023/05/15 04:04:37;;;;;;;27.38;13.43;;;9.80;99.90;;;;;;5059016;28;20449;-78
2023/05/15 04:07:04;;;;;;;24.92;12.90;;;9.80;99.90;;;;;;5054969;28;20037;-72
2023/05/15 04:09:30;;;;;;;28.85;13.05;;;9.80;99.90;;;;;;5058956;28;20128;-72
2023/05/15 04:11:55;;;;;;;25.90;13.27;;;9.80;99.90;;;;;;5060265;28;20096;-71
2023/05/15 04:14:21;;;;;;;25.02;12.60;;;9.90;99.90;;;;;;5060304;28;20475;-71
2023/05/15 04:16:47;;;;;;;27.10;14.15;;;9.90;99.90;;;;;;5054062;28;20156;-71
2023/05/15 04:19:12;;;;;;;27.80;12.73;;;9.90;99.90;;;;;;5064518;28;20028;-74
2023/05/15 04:21:38;;;;;;;25.48;13.55;;;10.00;99.90;;;;;;5058419;28;20077;-77
2023/05/15 04:24:04;;;;;;;25.38;13.25;;;9.90;99.90;;;;;;5052659;28;20117;-72
2023/05/15 04:26:30;;;;;;;24.85;13.13;;;9.90;99.90;;;;;;5059166;28;20069;-71
2023/05/15 04:28:56;;;;;;;23.63;11.95;;;9.90;99.90;;;;;;5058100;28;20137;-71
2023/05/15 04:31:22;;;;;;;23.95;12.23;;;10.00;99.90;;;;;;5064493;28;20524;-72
2023/05/15 04:33:48;;;;;;;24.92;12.75;;;10.00;99.90;;;;;;5060300;28;20037;-70
2023/05/15 04:36:13;;;;;;;24.13;12.35;;;10.00;99.90;;;;;;5059914;28;20074;-71
2023/05/15 04:38:39;;;;;;;28.90;13.73;;;10.00;99.90;;;;;;5055736;28;20033;-76
2023/05/15 04:41:04;;;;;;;23.65;11.95;;;10.00;99.90;;;;;;5057772;28;20155;-75
2023/05/15 04:43:30;;;;;;;22.15;11.85;;;9.90;99.90;;;;;;5065480;28;20478;-75
2023/05/15 04:45:56;;;;;;;26.00;12.68;;;9.90;99.90;;;;;;5062134;28;20528;-72
2023/05/15 04:48:21;;;;;;;24.90;12.43;;;9.70;99.90;;;;;;5055620;28;20033;-71
2023/05/15 04:50:47;;;;;;;24.85;12.20;;;9.70;99.90;;;;;;5063102;28;20185;-73
2023/05/15 04:53:13;;;;;;;29.95;13.32;;;9.70;99.90;;;;;;5049807;28;20024;-71
2023/05/15 04:55:39;;;;;;;24.15;12.02;;;9.60;99.90;;;;;;5051206;28;20028;-71
2023/05/15 04:58:04;;;;;;;27.13;13.13;;;9.60;99.90;;;;;;5061234;28;20029;-73
2023/05/15 05:00:30;;;;;;;29.80;14.18;;;9.60;99.90;;;;;;5063958;28;20032;-70
2023/05/15 05:02:56;;;;;;;30.02;14.02;;;9.70;99.90;;;;;;5065621;28;20048;-71
2023/05/15 05:05:21;;;;;;;26.88;13.23;;;9.70;99.90;;;;;;5059644;28;20052;-70
2023/05/15 05:07:47;;;;;;;25.73;13.38;;;9.80;99.90;;;;;;5063589;28;20111;-72
2023/05/15 05:10:13;;;;;;;26.48;13.00;;;9.80;99.90;;;;;;5057908;28;20099;-73
2023/05/15 05:12:39;;;;;;;29.13;14.60;;;9.90;99.90;;;;;;5058201;28;20029;-73
2023/05/15 05:15:05;;;;;;;29.33;14.02;;;9.90;99.90;;;;;;5067114;28;20480;-70
2023/05/15 05:17:30;;;;;;;29.45;14.15;;;9.90;99.90;;;;;;5064575;28;20063;-73
2023/05/15 05:19:56;;;;;;;27.77;13.80;;;9.90;99.90;;;;;;5058941;28;20102;-73
2023/05/15 05:22:21;;;;;;;32.50;15.23;;;9.90;99.90;;;;;;5053696;28;20033;-71
2023/05/15 05:24:47;;;;;;;44.60;18.25;;;10.00;99.90;;;;;;5055364;28;20489;-71
2023/05/15 05:27:13;;;;;;;35.85;15.60;;;10.20;99.90;;;;;;5064695;28;20029;-74
2023/05/15 05:29:38;;;;;;;38.97;16.55;;;10.30;99.90;;;;;;5058597;28;20106;-73
2023/05/15 05:32:05;;;;;;;30.58;15.00;;;10.30;99.90;;;;;;5061864;28;20036;-72
2023/05/15 05:34:31;;;;;;;33.13;14.15;;;10.30;99.90;;;;;;5058917;28;20045;-71
2023/05/15 05:36:57;;;;;;;27.10;13.90;;;10.30;99.90;;;;;;5062594;28;20029;-70
2023/05/15 05:39:22;;;;;;;32.05;13.52;;;10.40;99.90;;;;;;5061580;28;20417;-73
2023/05/15 05:41:48;;;;;;;30.88;12.75;;;10.40;99.90;;;;;;5063982;28;20134;-69
2023/05/15 05:44:14;;;;;;;27.95;12.80;;;10.30;99.90;;;;;;5060393;28;20147;-72
2023/05/15 05:46:39;;;;;;;29.25;13.75;;;10.30;99.90;;;;;;5070130;28;20151;-71
2023/05/15 05:49:05;;;;;;;27.48;12.38;;;10.30;99.90;;;;;;5060675;28;20025;-72
2023/05/15 05:51:30;;;;;;;22.75;11.75;;;10.40;99.90;;;;;;5058034;28;20387;-72
2023/05/15 05:53:56;;;;;;;22.80;11.85;;;10.50;99.90;;;;;;5069412;28;20039;-70
2023/05/15 05:56:22;;;;;;;25.20;11.70;;;10.50;99.90;;;;;;5056990;28;20742;-72
2023/05/15 05:58:48;;;;;;;24.27;11.85;;;10.50;99.90;;;;;;5061872;28;20039;-72
2023/05/15 06:01:14;;;;;;;22.20;11.90;;;10.50;99.90;;;;;;5068531;28;20048;-70
2023/05/15 06:03:42;;;;;;;26.45;12.27;;;10.60;99.90;;;;;;5065845;28;20157;-72
2023/05/15 06:06:07;;;;;;;23.00;11.85;;;10.60;99.90;;;;;;5054167;28;20052;-72
2023/05/15 06:08:33;;;;;;;24.23;12.10;;;10.70;99.90;;;;;;5071024;28;20448;-73
2023/05/15 06:10:58;;;;;;;25.40;11.55;;;10.70;99.90;;;;;;5067696;28;20107;-74
2023/05/15 06:13:24;;;;;;;25.55;12.00;;;10.80;99.90;;;;;;5060991;28;20040;-74
2023/05/15 06:15:50;;;;;;;24.20;11.07;;;10.80;99.90;;;;;;5064563;28;20079;-74
2023/05/15 06:18:16;;;;;;;27.17;11.48;;;10.90;99.90;;;;;;5054380;28;20437;-73
2023/05/15 06:20:42;;;;;;;23.77;11.32;;;10.90;99.90;;;;;;5068877;28;20032;-74
2023/05/15 06:23:08;;;;;;;22.20;11.80;;;11.00;99.90;;;;;;5065134;28;20045;-74
2023/05/15 06:25:33;;;;;;;23.15;10.85;;;11.10;99.90;;;;;;5067958;28;20044;-73
2023/05/15 06:27:59;;;;;;;19.38;10.50;;;11.20;99.90;;;;;;5059959;28;20029;-69
2023/05/15 06:30:25;;;;;;;21.95;10.95;;;11.20;99.90;;;;;;5062303;28;20212;-70
2023/05/15 06:32:52;;;;;;;18.80;10.32;;;11.30;99.90;;;;;;5066891;28;20028;-72
2023/05/15 06:35:18;;;;;;;21.48;10.25;;;11.30;99.90;;;;;;5062117;28;20033;-71
2023/05/15 06:37:43;;;;;;;22.33;10.27;;;11.40;99.90;;;;;;5070420;28;20043;-77
2023/05/15 06:40:09;;;;;;;20.08;10.13;;;11.40;99.90;;;;;;5069888;28;20452;-71
2023/05/15 06:42:35;;;;;;;19.92;10.50;;;11.40;99.90;;;;;;5063640;28;20037;-71
2023/05/15 06:45:00;;;;;;;17.67;9.55;;;11.60;99.90;;;;;;5060696;28;20037;-73
2023/05/15 06:47:26;;;;;;;16.67;9.15;;;11.60;99.90;;;;;;5068635;28;20384;-74
2023/05/15 06:49:54;;;;;;;17.65;10.20;;;11.80;99.90;;;;;;5060090;28;20461;-73
2023/05/15 06:52:19;;;;;;;14.30;8.10;;;12.00;99.90;;;;;;5053824;28;20032;-72
2023/05/15 06:54:45;;;;;;;17.00;8.85;;;12.20;99.90;;;;;;5060546;28;20033;-74
2023/05/15 06:57:11;;;;;;;16.58;8.40;;;12.20;99.90;;;;;;5062416;28;20051;-71
2023/05/15 06:59:37;;;;;;;17.13;8.85;;;12.20;99.90;;;;;;5061348;28;20481;-75
2023/05/15 07:02:03;;;;;;;18.77;8.88;;;12.10;99.90;;;;;;5066533;28;20484;-74
2023/05/15 07:04:29;;;;;;;19.13;8.70;;;12.10;99.90;;;;;;5064333;28;20037;-72
2023/05/15 07:06:55;;;;;;;15.38;8.75;;;12.20;99.90;;;;;;5062079;28;20047;-72
2023/05/15 07:09:21;;;;;;;13.48;7.68;;;12.30;99.90;;;;;;5062012;28;20457;-73
2023/05/15 07:11:47;;;;;;;14.60;8.00;;;12.50;99.90;;;;;;5064121;28;20785;-72
2023/05/15 07:14:12;;;;;;;15.68;8.13;;;12.80;99.90;;;;;;5069046;28;20622;-73
2023/05/15 07:16:38;;;;;;;15.07;7.68;;;12.90;99.90;;;;;;5063542;28;20020;-71
2023/05/15 07:19:04;;;;;;;15.52;7.53;;;13.10;99.90;;;;;;5067710;28;20032;-72
2023/05/15 07:21:29;;;;;;;13.55;6.72;;;13.40;99.90;;;;;;5062245;28;20059;-73
2023/05/15 07:23:57;;;;;;;12.07;6.90;;;13.70;99.90;;;;;;5059740;28;20468;-73
2023/05/15 07:26:23;;;;;;;11.90;6.43;;;13.90;99.90;;;;;;5066541;28;20029;-72
2023/05/15 07:28:48;;;;;;;12.63;6.80;;;14.20;99.90;;;;;;5061852;28;20480;-73
2023/05/15 07:31:14;;;;;;;10.63;6.43;;;14.40;99.90;;;;;;5057662;28;20540;-72
2023/05/15 07:33:40;;;;;;;11.85;5.80;;;14.40;99.90;;;;;;5068372;28;20048;-74
2023/05/15 07:36:05;;;;;;;13.07;6.82;;;14.30;99.90;;;;;;5067927;28;20480;-73
2023/05/15 07:38:31;;;;;;;12.43;7.00;;;14.30;99.90;;;;;;5062038;28;20100;-74
2023/05/15 07:40:57;;;;;;;14.10;6.47;;;14.20;99.90;;;;;;5057860;28;20071;-76
2023/05/15 07:43:22;;;;;;;11.88;6.40;;;14.00;99.90;;;;;;5060371;28;20064;-77
2023/05/15 07:45:48;;;;;;;11.40;6.72;;;13.90;99.90;;;;;;5065081;28;20388;-75
2023/05/15 07:48:18;;;;;;;12.68;6.55;;;13.80;99.90;;;;;;5064242;28;20021;-73
2023/05/15 07:50:45;;;;;;;11.63;6.60;;;13.70;99.90;;;;;;5052840;28;20111;-73
2023/05/15 07:53:18;;;;;;;13.38;6.85;;;13.90;99.90;;;;;;5057837;28;20089;-71
2023/05/15 07:55:44;;;;;;;15.88;7.97;;;14.10;99.90;;;;;;5053055;28;20071;-71
2023/05/15 07:58:10;;;;;;;16.13;6.95;;;14.10;99.90;;;;;;5056824;28;20025;-73
2023/05/15 08:00:37;;;;;;;13.98;7.10;;;14.20;99.90;;;;;;5057010;28;20075;-72
2023/05/15 08:03:02;;;;;;;11.80;7.07;;;14.40;99.90;;;;;;5058218;28;20099;-70
2023/05/15 08:05:28;;;;;;;12.20;7.38;;;14.60;99.90;;;;;;5060545;28;20411;-72
2023/05/15 08:07:55;;;;;;;12.85;7.40;;;14.80;99.90;;;;;;5064134;28;20035;-74
2023/05/15 08:10:21;;;;;;;12.95;7.28;;;14.90;99.90;;;;;;5068163;28;20104;-73
2023/05/15 08:12:47;;;;;;;11.48;6.75;;;14.80;99.90;;;;;;5062013;28;20453;-72
2023/05/15 08:15:14;;;;;;;10.32;6.00;;;14.80;99.90;;;;;;5061683;28;20941;-75
2023/05/15 08:17:40;;;;;;;11.57;5.60;;;14.70;99.90;;;;;;5058778;28;20098;-74
2023/05/15 08:20:06;;;;;;;8.25;5.45;;;14.70;99.90;;;;;;5057739;28;20028;-74
2023/05/15 08:22:32;;;;;;;8.55;5.05;;;14.70;99.90;;;;;;5060857;28;20068;-75
2023/05/15 08:24:59;;;;;;;13.90;6.15;;;14.90;99.90;;;;;;5052149;28;20123;-75
2023/05/15 08:27:24;;;;;;;10.68;5.68;;;14.80;99.90;;;;;;5056668;28;20033;-74
2023/05/15 08:29:51;;;;;;;12.23;5.57;;;14.70;99.90;;;;;;5049142;28;20033;-72
2023/05/15 08:32:17;;;;;;;9.73;6.03;;;15.00;99.90;;;;;;5058183;28;20037;-72
2023/05/15 08:34:43;;;;;;;13.90;6.45;;;15.40;99.90;;;;;;5068869;28;20033;-72
2023/05/15 08:37:09;;;;;;;12.13;6.10;;;15.60;99.90;;;;;;5058257;28;20025;-74
2023/05/15 08:39:34;;;;;;;11.07;6.05;;;15.70;99.90;;;;;;5066984;28;20028;-74
2023/05/15 08:42:19;;;;;;;11.43;6.28;;;15.90;99.90;;;;;;5056783;28;20469;-73
2023/05/15 08:44:46;;;;;;;11.55;6.60;;;16.40;99.90;;;;;;5067030;28;20693;-73
2023/05/15 08:47:13;;;;;;;12.90;6.90;;;16.60;99.90;;;;;;5056911;28;20040;-74
2023/05/15 08:50:03;;;;;;;9.95;6.15;;;16.20;99.90;;;;;;5063930;28;20040;-71
2023/05/15 08:52:29;;;;;;;9.00;6.13;;;16.20;99.90;;;;;;5064075;28;20024;-77
2023/05/15 08:54:55;;;;;;;10.30;6.30;;;16.30;99.90;;;;;;5060445;28;20060;-73
2023/05/15 08:57:21;;;;;;;11.80;6.55;;;16.30;99.90;;;;;;5056007;28;20060;-73
2023/05/15 08:59:50;;;;;;;11.30;6.43;;;16.00;99.90;;;;;;5066540;28;20039;-73
2023/05/15 09:02:16;;;;;;;9.68;6.13;;;15.80;99.90;;;;;;5067501;28;20071;-73
2023/05/15 09:04:43;;;;;;;11.70;5.95;;;16.20;99.90;;;;;;5057200;28;20039;-75
2023/05/15 09:07:10;;;;;;;10.57;6.60;;;16.30;99.90;;;;;;5053028;28;20029;-74
2023/05/15 09:09:36;;;;;;;13.05;7.18;;;16.70;99.90;;;;;;5057541;28;20036;-74
2023/05/15 09:12:03;;;;;;;9.60;6.45;;;16.90;99.90;;;;;;5064733;28;20028;-73
2023/05/15 09:14:29;;;;;;;17.15;6.47;;;16.80;99.90;;;;;;5067049;28;20029;-73
2023/05/15 09:16:54;;;;;;;10.82;6.78;;;16.60;99.90;;;;;;5053369;28;20036;-74
2023/05/15 09:19:21;;;;;;;11.38;6.55;;;16.50;99.90;;;;;;5067918;28;20029;-73
2023/05/15 09:21:47;;;;;;;10.05;6.88;;;16.50;99.90;;;;;;5055554;28;20052;-72
2023/05/15 09:24:22;;;;;;;12.60;7.00;;;16.40;99.90;;;;;;5057485;28;20037;-75
2023/05/15 09:27:05;;;;;;;21.50;7.72;;;16.20;99.90;;;;;;5052658;28;20063;-73
2023/05/15 09:29:32;;;;;;;27.52;9.02;;;15.80;99.90;;;;;;5064480;28;20024;-74
2023/05/15 09:32:06;;;;;;;13.70;7.78;;;15.50;99.90;;;;;;5055523;28;20025;-74
2023/05/15 09:34:34;;;;;;;12.48;8.25;;;15.40;99.90;;;;;;5064289;28;20081;-73
2023/05/15 09:37:02;;;;;;;14.00;8.40;;;15.00;99.90;;;;;;5053806;28;20079;-73
2023/05/15 09:39:27;;;;;;;15.27;8.02;;;14.90;99.90;;;;;;5054805;28;20063;-75
2023/05/15 09:42:04;;;;;;;21.58;9.07;;;14.90;99.90;;;;;;5062994;28;20425;-73
2023/05/15 09:44:30;;;;;;;13.73;7.78;;;14.80;99.90;;;;;;5063165;28;20507;-77
2023/05/15 09:46:56;;;;;;;12.43;8.32;;;14.90;99.90;;;;;;5057118;28;20056;-73
2023/05/15 09:49:22;;;;;;;12.60;8.55;;;15.00;99.90;;;;;;5060268;28;20048;-73
2023/05/15 09:51:50;;;;;;;22.73;9.23;;;15.20;99.90;;;;;;5054852;28;20461;-72
2023/05/15 09:54:17;;;;;;;12.52;8.18;;;15.40;99.90;;;;;;5059777;28;20028;-72
2023/05/15 09:56:46;;;;;;;13.82;8.35;;;15.60;99.90;;;;;;5061988;28;20032;-74
2023/05/15 09:59:14;;;;;;;14.20;9.00;;;16.00;99.90;;;;;;5058392;28;20099;-74
2023/05/15 10:01:44;;;;;;;14.68;9.07;;;16.10;99.90;;;;;;5056337;28;20164;-72
2023/05/15 10:04:11;;;;;;;15.73;9.10;;;16.10;99.90;;;;;;5060265;28;20044;-72
2023/05/15 10:06:39;;;;;;;18.23;9.05;;;16.00;99.90;;;;;;5050961;28;20041;-72
2023/05/15 10:09:05;;;;;;;12.70;8.63;;;15.80;99.90;;;;;;5062000;28;20036;-72
2023/05/15 10:11:34;;;;;;;11.15;7.70;;;15.60;99.90;;;;;;5061961;28;20036;-72
2023/05/15 10:14:01;;;;;;;13.95;7.65;;;15.30;99.90;;;;;;5060175;28;20041;-75
2023/05/15 10:16:29;;;;;;;16.98;8.50;;;15.10;99.90;;;;;;5049570;28;20559;-73
2023/05/15 10:18:57;;;;;;;13.65;7.63;;;15.20;99.90;;;;;;5061646;28;20366;-74
2023/05/15 10:21:23;;;;;;;13.80;7.93;;;15.20;99.90;;;;;;5061665;28;20043;-72
2023/05/15 10:23:50;;;;;;;10.88;7.78;;;15.10;99.90;;;;;;5065703;28;20036;-73
2023/05/15 10:26:23;;;;;;;14.70;8.15;;;15.10;99.90;;;;;;5060048;28;20052;-73
2023/05/15 10:28:50;;;;;;;12.68;8.57;;;14.90;99.90;;;;;;5058467;28;20095;-73
2023/05/15 10:31:17;;;;;;;13.93;8.70;;;14.90;99.90;;;;;;5067031;28;20106;-76
2023/05/15 10:33:43;;;;;;;14.98;8.43;;;14.90;99.90;;;;;;5062598;28;20082;-74
2023/05/15 10:36:09;;;;;;;14.45;8.20;;;15.00;99.90;;;;;;5065150;28;20502;-74
2023/05/15 10:38:36;;;;;;;16.83;9.13;;;14.90;99.90;;;;;;5061358;28;20043;-73
2023/05/15 10:41:04;;;;;;;15.15;8.88;;;14.90;99.90;;;;;;5060834;28;20060;-73
2023/05/15 10:43:30;;;;;;;15.82;8.90;;;14.90;99.90;;;;;;5067268;28;20032;-71
2023/05/15 10:45:56;;;;;;;17.50;9.00;;;14.90;99.90;;;;;;5060696;28;20040;-73
2023/05/15 10:48:22;;;;;;;13.73;8.63;;;15.00;99.90;;;;;;5056535;28;20033;-73
2023/05/15 10:50:48;;;;;;;15.65;9.07;;;15.00;99.90;;;;;;5061360;28;20082;-72
2023/05/15 10:53:15;;;;;;;14.45;8.93;;;15.10;99.90;;;;;;5068268;28;20036;-72
2023/05/15 10:55:40;;;;;;;15.63;9.95;;;15.10;99.90;;;;;;5059330;28;20047;-72
2023/05/15 10:58:09;;;;;;;13.00;9.07;;;15.20;99.90;;;;;;5055846;28;20461;-73
2023/05/15 11:00:41;;;;;;;14.68;9.10;;;15.30;99.90;;;;;;5064442;28;20028;-74
2023/05/15 11:03:07;;;;;;;18.50;9.00;;;15.30;99.90;;;;;;5069238;28;20040;-73
2023/05/15 11:06:08;;;;;;;14.68;9.13;;;15.30;99.90;;;;;;5061418;28;20028;-72
2023/05/15 11:08:39;;;;;;;15.35;9.27;;;15.40;99.90;;;;;;5060348;28;20037;-73
2023/05/15 11:11:05;;;;;;;12.90;8.48;;;15.60;99.90;;;;;;5062495;28;20112;-73
2023/05/15 11:14:06;;;;;;;14.27;9.43;;;15.80;99.90;;;;;;5057568;28;20052;-75
2023/05/15 11:16:54;;;;;;;12.93;8.35;;;16.20;99.90;;;;;;5060036;28;20029;-74
2023/05/15 11:19:34;;;;;;;11.20;7.75;;;16.20;99.90;;;;;;5061426;28;20036;-74
2023/05/15 11:22:25;;;;;;;13.20;8.40;;;16.00;99.90;;;;;;5058916;28;20090;-73
2023/05/15 11:24:57;;;;;;;13.18;8.52;;;15.80;99.90;;;;;;5066482;28;20033;-74
2023/05/15 11:27:29;;;;;;;15.98;8.65;;;15.90;99.90;;;;;;5061656;28;20946;-72
2023/05/15 11:30:08;;;;;;;15.48;8.95;;;15.90;99.90;;;;;;5066424;28;20033;-75
2023/05/15 11:32:45;;;;;;;13.80;8.68;;;16.00;99.90;;;;;;5057102;28;20037;-72
2023/05/15 11:35:22;;;;;;;13.48;7.95;;;16.00;99.90;;;;;;5063742;28;20032;-72
2023/05/15 11:38:02;;;;;;;12.40;7.88;;;15.90;99.90;;;;;;5058288;28;20043;-73
2023/05/15 11:40:32;;;;;;;13.00;8.07;;;15.90;99.90;;;;;;5062329;28;20381;-73
2023/05/15 11:43:26;;;;;;;20.05;8.43;;;15.80;99.90;;;;;;5049436;28;20044;-72
2023/05/15 11:46:05;;;;;;;12.23;7.78;;;15.80;99.90;;;;;;5063974;28;20167;-72
2023/05/15 11:48:33;;;;;;;13.18;8.00;;;15.90;99.90;;;;;;5062012;28;20087;-73
2023/05/15 11:51:03;;;;;;;12.63;8.43;;;16.00;99.90;;;;;;5052654;28;20037;-73
2023/05/15 11:53:29;;;;;;;13.10;7.57;;;16.00;99.90;;;;;;5063005;28;20055;-69
2023/05/15 11:55:55;;;;;;;13.65;8.02;;;16.10;99.90;;;;;;5065699;28;20024;-71
2023/05/15 11:58:23;;;;;;;13.07;8.60;;;16.10;99.90;;;;;;5059046;28;20028;-73
2023/05/15 12:00:50;;;;;;;13.10;7.90;;;16.10;99.90;;;;;;5058955;28;20082;-73
2023/05/15 12:03:22;;;;;;;12.48;8.45;;;16.30;99.90;;;;;;5067181;28;20048;-72
2023/05/15 12:05:50;;;;;;;12.05;8.48;;;16.60;99.90;;;;;;5057299;28;20062;-72
2023/05/15 12:08:15;;;;;;;11.18;7.00;;;16.90;99.90;;;;;;5058757;28;20028;-73
2023/05/15 12:10:43;;;;;;;17.77;6.38;;;17.00;99.90;;;;;;5060139;28;20489;-73
2023/05/15 12:13:14;;;;;;;7.63;5.65;;;17.20;99.90;;;;;;5058356;28;20079;-73
2023/05/15 12:15:45;;;;;;;18.63;7.20;;;17.20;99.90;;;;;;5056779;28;20175;-72
2023/05/15 12:18:11;;;;;;;11.57;5.18;;;17.30;99.90;;;;;;5060951;28;20086;-72
2023/05/15 12:20:38;;;;;;;11.18;5.82;;;17.00;99.90;;;;;;5061196;28;20052;-75
2023/05/15 12:23:06;;;;;;;4.25;3.47;;;17.00;99.90;;;;;;5060173;28;20041;-73
2023/05/15 12:25:35;;;;;;;5.35;3.72;;;16.90;99.90;;;;;;5056319;28;20035;-72
2023/05/15 12:28:03;;;;;;;6.57;4.70;;;16.70;99.90;;;;;;5056199;28;20038;-72
2023/05/15 12:30:33;;;;;;;8.45;4.20;;;16.60;99.90;;;;;;5061939;28;20036;-74
2023/05/15 12:33:02;;;;;;;6.10;4.00;;;16.50;99.90;;;;;;5068877;28;20436;-73
2023/05/15 12:35:28;;;;;;;7.70;4.82;;;16.50;99.90;;;;;;5058589;28;20027;-74
2023/05/15 12:37:54;;;;;;;9.48;4.25;;;16.30;99.90;;;;;;5065933;28;20028;-74
2023/05/15 12:40:20;;;;;;;5.35;4.20;;;16.40;99.90;;;;;;5060202;28;20831;-73